sensor_id;sensor_type;location;lat;lon;timestamp;temperature;humidity
2062;DHT22;11070;51.336;12.340;2023-02-25T00:02:10;3.60;44.30
2062;DHT22;11070;51.336;12.340;2023-02-25T00:04:36;3.70;30.20
2062;DHT22;11070;51.336;12.340;2023-02-25T00:07:02;3.70;24.10
2062;DHT22;11070;51.336;12.340;2023-02-25T00:09:28;3.70;6.60
2062;DHT22;11070;51.336;12.340;2023-02-25T00:11:54;3.70;1.00
2062;DHT22;11070;51.336;12.340;2023-02-25T00:14:20;3.70;1.00
2062;DHT22;11070;51.336;12.340;2023-02-25T00:16:48;3.70;1.00
2062;DHT22;11070;51.336;12.340;2023-02-25T00:19:14;3.80;1.00
2062;DHT22;11070;51.336;12.340;2023-02-25T00:21:39;3.80;1.00
2062;DHT22;11070;51.336;12.340;2023-02-25T00:24:05;3.80;1.00
2062;DHT22;11070;51.336;12.340;2023-02-25T00:26:31;3.80;1.00
2062;DHT22;11070;51.336;12.340;2023-02-25T00:28:57;3.80;1.00
2062;DHT22;11070;51.336;12.340;2023-02-25T00:31:23;3.90;1.00
2062;DHT22;11070;51.336;12.340;2023-02-25T00:33:50;3.90;1.00
2062;DHT22;11070;51.336;12.340;2023-02-25T00:36:21;3.90;1.00
2062;DHT22;11070;51.336;12.340;2023-02-25T00:38:53;3.90;1.00
2062;DHT22;11070;51.336;12.340;2023-02-25T00:41:23;4.00;1.00
2062;DHT22;11070;51.336;12.340;2023-02-25T00:43:51;4.00;1.00
2062;DHT22;11070;51.336;12.340;2023-02-25T00:46:17;4.00;1.00
2062;DHT22;11070;51.336;12.340;2023-02-25T00:48:43;3.90;1.00
2062;DHT22;11070;51.336;12.340;2023-02-25T00:51:14;3.90;1.00
2062;DHT22;11070;51.336;12.340;2023-02-25T00:53:41;3.90;1.00
2062;DHT22;11070;51.336;12.340;2023-02-25T00:56:08;3.90;1.00
2062;DHT22;11070;51.336;12.340;2023-02-25T00:58:37;3.90;1.00
2062;DHT22;11070;51.336;12.340;2023-02-25T01:03:40;3.90;1.00
2062;DHT22;11070;51.336;12.340;2023-02-25T01:06:10;3.90;1.00
2062;DHT22;11070;51.336;12.340;2023-02-25T01:08:36;3.90;1.00
2062;DHT22;11070;51.336;12.340;2023-02-25T01:11:12;3.90;1.00
2062;DHT22;11070;51.336;12.340;2023-02-25T01:13:40;3.90;1.00
2062;DHT22;11070;51.336;12.340;2023-02-25T01:16:10;3.90;1.00
2062;DHT22;11070;51.336;12.340;2023-02-25T01:18:36;3.90;1.00
2062;DHT22;11070;51.336;12.340;2023-02-25T01:21:02;3.90;1.00
2062;DHT22;11070;51.336;12.340;2023-02-25T01:23:27;3.80;1.00
2062;DHT22;11070;51.336;12.340;2023-02-25T01:25:54;3.80;1.00
2062;DHT22;11070;51.336;12.340;2023-02-25T01:28:20;3.90;1.00
2062;DHT22;11070;51.336;12.340;2023-02-25T01:30:46;3.90;1.00
2062;DHT22;11070;51.336;12.340;2023-02-25T01:33:11;3.90;1.00
2062;DHT22;11070;51.336;12.340;2023-02-25T01:35:37;3.90;1.00
2062;DHT22;11070;51.336;12.340;2023-02-25T01:38:03;3.90;1.00
2062;DHT22;11070;51.336;12.340;2023-02-25T01:40:28;3.90;1.00
2062;DHT22;11070;51.336;12.340;2023-02-25T01:42:54;3.90;1.00
2062;DHT22;11070;51.336;12.340;2023-02-25T01:45:28;3.90;1.00
2062;DHT22;11070;51.336;12.340;2023-02-25T01:48:12;3.90;1.00
2062;DHT22;11070;51.336;12.340;2023-02-25T01:50:44;3.90;1.00
2062;DHT22;11070;51.336;12.340;2023-02-25T01:53:11;3.90;1.00
2062;DHT22;11070;51.336;12.340;2023-02-25T01:55:39;3.90;1.00
2062;DHT22;11070;51.336;12.340;2023-02-25T01:58:05;3.80;1.00
2062;DHT22;11070;51.336;12.340;2023-02-25T02:00:32;3.80;1.00
2062;DHT22;11070;51.336;12.340;2023-02-25T02:02:58;3.80;1.00
2062;DHT22;11070;51.336;12.340;2023-02-25T02:05:36;3.70;1.00
2062;DHT22;11070;51.336;12.340;2023-02-25T02:08:03;3.70;1.00
2062;DHT22;11070;51.336;12.340;2023-02-25T02:10:30;3.70;1.00
2062;DHT22;11070;51.336;12.340;2023-02-25T02:12:55;3.70;1.00
2062;DHT22;11070;51.336;12.340;2023-02-25T02:15:21;3.70;1.00
2062;DHT22;11070;51.336;12.340;2023-02-25T02:17:49;3.70;1.00
2062;DHT22;11070;51.336;12.340;2023-02-25T02:25:59;3.60;1.00
2062;DHT22;11070;51.336;12.340;2023-02-25T02:32:05;3.60;1.00
2062;DHT22;11070;51.336;12.340;2023-02-25T02:45:54;3.70;1.00
2062;DHT22;11070;51.336;12.340;2023-02-25T02:48:38;3.70;1.00
2062;DHT22;11070;51.336;12.340;2023-02-25T02:51:22;3.70;1.00
2062;DHT22;11070;51.336;12.340;2023-02-25T02:53:53;3.60;1.00
2062;DHT22;11070;51.336;12.340;2023-02-25T02:56:21;3.60;1.00
2062;DHT22;11070;51.336;12.340;2023-02-25T02:59:04;3.60;1.00
2062;DHT22;11070;51.336;12.340;2023-02-25T03:01:36;3.50;1.00
2062;DHT22;11070;51.336;12.340;2023-02-25T03:04:06;3.50;1.00
2062;DHT22;11070;51.336;12.340;2023-02-25T03:06:47;3.50;1.00
2062;DHT22;11070;51.336;12.340;2023-02-25T03:12:16;3.60;1.00
2062;DHT22;11070;51.336;12.340;2023-02-25T03:14:42;3.60;1.00
2062;DHT22;11070;51.336;12.340;2023-02-25T03:17:18;3.60;1.00
2062;DHT22;11070;51.336;12.340;2023-02-25T03:19:59;3.60;1.00
2062;DHT22;11070;51.336;12.340;2023-02-25T03:22:30;3.60;1.00
2062;DHT22;11070;51.336;12.340;2023-02-25T03:25:19;3.60;1.00
2062;DHT22;11070;51.336;12.340;2023-02-25T03:27:48;3.70;1.00
2062;DHT22;11070;51.336;12.340;2023-02-25T03:30:16;3.70;1.00
2062;DHT22;11070;51.336;12.340;2023-02-25T03:32:51;3.70;1.00
2062;DHT22;11070;51.336;12.340;2023-02-25T03:35:19;3.70;1.00
2062;DHT22;11070;51.336;12.340;2023-02-25T03:37:50;3.70;1.00
2062;DHT22;11070;51.336;12.340;2023-02-25T03:40:18;3.70;1.00
2062;DHT22;11070;51.336;12.340;2023-02-25T03:42:52;3.50;1.00
2062;DHT22;11070;51.336;12.340;2023-02-25T03:45:19;3.00;1.00
2062;DHT22;11070;51.336;12.340;2023-02-25T03:47:45;2.70;1.00
2062;DHT22;11070;51.336;12.340;2023-02-25T03:50:18;2.60;1.00
2062;DHT22;11070;51.336;12.340;2023-02-25T03:52:45;2.50;24.50
2062;DHT22;11070;51.336;12.340;2023-02-25T03:55:11;2.30;37.40
2062;DHT22;11070;51.336;12.340;2023-02-25T03:57:41;2.20;90.40
2062;DHT22;11070;51.336;12.340;2023-02-25T04:00:12;2.10;99.90
2062;DHT22;11070;51.336;12.340;2023-02-25T04:02:46;2.00;99.90
2062;DHT22;11070;51.336;12.340;2023-02-25T04:05:13;1.90;99.90
2062;DHT22;11070;51.336;12.340;2023-02-25T04:07:39;1.80;99.90
2062;DHT22;11070;51.336;12.340;2023-02-25T04:10:07;1.80;99.90
2062;DHT22;11070;51.336;12.340;2023-02-25T04:12:33;1.80;99.90
2062;DHT22;11070;51.336;12.340;2023-02-25T04:14:59;1.80;99.90
2062;DHT22;11070;51.336;12.340;2023-02-25T04:17:26;1.90;99.90
2062;DHT22;11070;51.336;12.340;2023-02-25T04:19:51;1.90;99.90
2062;DHT22;11070;51.336;12.340;2023-02-25T04:22:17;1.90;99.90
2062;DHT22;11070;51.336;12.340;2023-02-25T04:24:43;1.90;99.90
2062;DHT22;11070;51.336;12.340;2023-02-25T04:27:08;1.90;99.90
2062;DHT22;11070;51.336;12.340;2023-02-25T04:29:34;1.90;99.90
2062;DHT22;11070;51.336;12.340;2023-02-25T04:32:00;1.90;99.90
2062;DHT22;11070;51.336;12.340;2023-02-25T04:34:25;1.90;99.90
2062;DHT22;11070;51.336;12.340;2023-02-25T04:36:51;2.00;99.90
2062;DHT22;11070;51.336;12.340;2023-02-25T04:39:17;2.00;99.90
2062;DHT22;11070;51.336;12.340;2023-02-25T04:41:43;2.10;99.90
2062;DHT22;11070;51.336;12.340;2023-02-25T04:44:09;2.10;99.90
2062;DHT22;11070;51.336;12.340;2023-02-25T04:46:38;2.10;99.90
2062;DHT22;11070;51.336;12.340;2023-02-25T04:49:05;2.20;99.90
2062;DHT22;11070;51.336;12.340;2023-02-25T04:51:31;2.20;99.90
2062;DHT22;11070;51.336;12.340;2023-02-25T04:53:56;2.30;99.90
2062;DHT22;11070;51.336;12.340;2023-02-25T04:56:22;2.30;99.90
2062;DHT22;11070;51.336;12.340;2023-02-25T04:58:48;2.30;99.90
2062;DHT22;11070;51.336;12.340;2023-02-25T05:01:14;2.30;99.90
2062;DHT22;11070;51.336;12.340;2023-02-25T05:03:40;2.40;99.90
2062;DHT22;11070;51.336;12.340;2023-02-25T05:06:06;2.40;99.90
2062;DHT22;11070;51.336;12.340;2023-02-25T05:08:32;2.50;99.90
2062;DHT22;11070;51.336;12.340;2023-02-25T05:10:59;2.50;99.90
2062;DHT22;11070;51.336;12.340;2023-02-25T05:13:26;2.50;83.70
2062;DHT22;11070;51.336;12.340;2023-02-25T05:15:52;2.60;43.00
2062;DHT22;11070;51.336;12.340;2023-02-25T05:18:18;2.60;23.10
2062;DHT22;11070;51.336;12.340;2023-02-25T05:20:45;2.60;1.00
2062;DHT22;11070;51.336;12.340;2023-02-25T05:23:11;2.60;1.00
2062;DHT22;11070;51.336;12.340;2023-02-25T05:25:38;2.70;1.00
2062;DHT22;11070;51.336;12.340;2023-02-25T05:28:10;2.70;1.00
2062;DHT22;11070;51.336;12.340;2023-02-25T05:30:37;2.70;1.00
2062;DHT22;11070;51.336;12.340;2023-02-25T05:33:04;2.70;1.00
2062;DHT22;11070;51.336;12.340;2023-02-25T05:35:30;2.70;1.00
2062;DHT22;11070;51.336;12.340;2023-02-25T05:37:59;2.80;1.00
2062;DHT22;11070;51.336;12.340;2023-02-25T05:40:25;2.80;1.00
2062;DHT22;11070;51.336;12.340;2023-02-25T05:42:51;2.80;1.00
2062;DHT22;11070;51.336;12.340;2023-02-25T05:45:17;2.80;1.00
2062;DHT22;11070;51.336;12.340;2023-02-25T05:47:43;2.90;1.00
2062;DHT22;11070;51.336;12.340;2023-02-25T05:50:09;2.90;99.90
2062;DHT22;11070;51.336;12.340;2023-02-25T05:52:35;2.90;99.90
2062;DHT22;11070;51.336;12.340;2023-02-25T05:55:02;2.90;99.90
2062;DHT22;11070;51.336;12.340;2023-02-25T05:57:27;3.00;99.90
2062;DHT22;11070;51.336;12.340;2023-02-25T05:59:53;3.00;99.90
2062;DHT22;11070;51.336;12.340;2023-02-25T06:02:19;3.00;99.90
2062;DHT22;11070;51.336;12.340;2023-02-25T06:04:44;3.00;1.00
2062;DHT22;11070;51.336;12.340;2023-02-25T06:07:12;3.00;1.00
2062;DHT22;11070;51.336;12.340;2023-02-25T06:09:38;3.00;1.00
2062;DHT22;11070;51.336;12.340;2023-02-25T06:12:04;3.00;1.00
2062;DHT22;11070;51.336;12.340;2023-02-25T06:14:30;3.00;1.00
2062;DHT22;11070;51.336;12.340;2023-02-25T06:16:56;3.00;1.00
2062;DHT22;11070;51.336;12.340;2023-02-25T06:19:23;3.00;1.00
2062;DHT22;11070;51.336;12.340;2023-02-25T06:21:53;3.00;1.00
2062;DHT22;11070;51.336;12.340;2023-02-25T06:24:20;3.00;1.00
2062;DHT22;11070;51.336;12.340;2023-02-25T06:26:49;3.00;1.00
2062;DHT22;11070;51.336;12.340;2023-02-25T06:29:15;3.00;1.00
2062;DHT22;11070;51.336;12.340;2023-02-25T06:31:40;3.00;1.00
2062;DHT22;11070;51.336;12.340;2023-02-25T06:34:07;3.00;1.00
2062;DHT22;11070;51.336;12.340;2023-02-25T06:36:33;3.00;1.00
2062;DHT22;11070;51.336;12.340;2023-02-25T06:38:59;3.00;1.00
2062;DHT22;11070;51.336;12.340;2023-02-25T06:41:25;3.00;1.00
2062;DHT22;11070;51.336;12.340;2023-02-25T06:43:51;3.00;1.00
2062;DHT22;11070;51.336;12.340;2023-02-25T06:46:22;3.00;1.00
2062;DHT22;11070;51.336;12.340;2023-02-25T06:48:48;3.00;1.00
2062;DHT22;11070;51.336;12.340;2023-02-25T06:51:14;3.00;1.00
2062;DHT22;11070;51.336;12.340;2023-02-25T06:53:41;3.00;1.00
2062;DHT22;11070;51.336;12.340;2023-02-25T06:56:09;3.00;1.00
2062;DHT22;11070;51.336;12.340;2023-02-25T06:58:36;3.00;1.00
2062;DHT22;11070;51.336;12.340;2023-02-25T07:01:09;3.10;1.00
2062;DHT22;11070;51.336;12.340;2023-02-25T07:03:36;3.00;1.00
2062;DHT22;11070;51.336;12.340;2023-02-25T07:06:01;3.00;1.00
2062;DHT22;11070;51.336;12.340;2023-02-25T07:08:27;3.00;1.00
2062;DHT22;11070;51.336;12.340;2023-02-25T07:10:53;3.00;1.00
2062;DHT22;11070;51.336;12.340;2023-02-25T07:13:19;3.10;1.00
2062;DHT22;11070;51.336;12.340;2023-02-25T07:15:44;3.20;1.00
2062;DHT22;11070;51.336;12.340;2023-02-25T07:18:10;3.10;1.00
2062;DHT22;11070;51.336;12.340;2023-02-25T07:20:35;3.10;1.00
2062;DHT22;11070;51.336;12.340;2023-02-25T07:23:04;3.10;1.00
2062;DHT22;11070;51.336;12.340;2023-02-25T07:25:30;3.10;1.00
2062;DHT22;11070;51.336;12.340;2023-02-25T07:27:56;3.10;1.00
2062;DHT22;11070;51.336;12.340;2023-02-25T07:30:22;3.00;1.00
2062;DHT22;11070;51.336;12.340;2023-02-25T07:32:48;3.10;1.00
2062;DHT22;11070;51.336;12.340;2023-02-25T07:35:13;3.20;1.00
2062;DHT22;11070;51.336;12.340;2023-02-25T07:37:39;3.20;1.00
2062;DHT22;11070;51.336;12.340;2023-02-25T07:40:06;3.20;1.00
2062;DHT22;11070;51.336;12.340;2023-02-25T07:42:40;3.30;1.00
2062;DHT22;11070;51.336;12.340;2023-02-25T07:45:07;3.20;1.00
2062;DHT22;11070;51.336;12.340;2023-02-25T07:47:36;3.20;1.00
2062;DHT22;11070;51.336;12.340;2023-02-25T07:50:03;3.20;1.00
2062;DHT22;11070;51.336;12.340;2023-02-25T07:52:29;3.30;1.00
2062;DHT22;11070;51.336;12.340;2023-02-25T07:54:55;3.30;99.90
2062;DHT22;11070;51.336;12.340;2023-02-25T07:57:20;3.30;99.90
2062;DHT22;11070;51.336;12.340;2023-02-25T07:59:47;3.40;99.90
2062;DHT22;11070;51.336;12.340;2023-02-25T08:02:13;3.40;99.90
2062;DHT22;11070;51.336;12.340;2023-02-25T08:04:39;3.50;1.00
2062;DHT22;11070;51.336;12.340;2023-02-25T08:07:05;3.50;6.10
2062;DHT22;11070;51.336;12.340;2023-02-25T08:09:31;3.50;1.00
2062;DHT22;11070;51.336;12.340;2023-02-25T08:11:57;3.60;1.00
2062;DHT22;11070;51.336;12.340;2023-02-25T08:14:23;3.70;1.00
2062;DHT22;11070;51.336;12.340;2023-02-25T08:16:49;3.70;99.90
2062;DHT22;11070;51.336;12.340;2023-02-25T08:19:14;3.60;99.90
2062;DHT22;11070;51.336;12.340;2023-02-25T08:21:40;3.60;1.00
2062;DHT22;11070;51.336;12.340;2023-02-25T08:24:07;3.60;1.00
2062;DHT22;11070;51.336;12.340;2023-02-25T08:26:33;3.70;99.90
2062;DHT22;11070;51.336;12.340;2023-02-25T08:28:59;3.70;99.90
2062;DHT22;11070;51.336;12.340;2023-02-25T08:31:25;3.50;1.00
2062;DHT22;11070;51.336;12.340;2023-02-25T08:33:51;3.40;74.80
2062;DHT22;11070;51.336;12.340;2023-02-25T08:36:23;3.40;99.90
2062;DHT22;11070;51.336;12.340;2023-02-25T08:38:49;3.40;99.90
2062;DHT22;11070;51.336;12.340;2023-02-25T08:41:16;3.40;99.90
2062;DHT22;11070;51.336;12.340;2023-02-25T08:43:42;3.20;99.90
2062;DHT22;11070;51.336;12.340;2023-02-25T08:46:08;2.90;1.00
2062;DHT22;11070;51.336;12.340;2023-02-25T08:48:35;2.80;1.00
2062;DHT22;11070;51.336;12.340;2023-02-25T08:51:05;2.90;1.00
2062;DHT22;11070;51.336;12.340;2023-02-25T08:53:39;2.80;1.00
2062;DHT22;11070;51.336;12.340;2023-02-25T08:56:10;2.90;1.00
2062;DHT22;11070;51.336;12.340;2023-02-25T08:58:36;2.90;1.00
2062;DHT22;11070;51.336;12.340;2023-02-25T09:01:11;3.10;1.00
2062;DHT22;11070;51.336;12.340;2023-02-25T09:03:40;3.20;1.00
2062;DHT22;11070;51.336;12.340;2023-02-25T09:06:16;3.20;1.00
2062;DHT22;11070;51.336;12.340;2023-02-25T09:08:42;3.20;1.00
2062;DHT22;11070;51.336;12.340;2023-02-25T09:11:07;3.30;1.00
2062;DHT22;11070;51.336;12.340;2023-02-25T09:13:36;3.30;1.00
2062;DHT22;11070;51.336;12.340;2023-02-25T09:16:01;3.30;1.00
2062;DHT22;11070;51.336;12.340;2023-02-25T09:18:27;3.40;1.00
2062;DHT22;11070;51.336;12.340;2023-02-25T09:20:55;3.50;1.00
2062;DHT22;11070;51.336;12.340;2023-02-25T09:23:21;3.50;1.00
2062;DHT22;11070;51.336;12.340;2023-02-25T09:25:46;3.60;1.00
2062;DHT22;11070;51.336;12.340;2023-02-25T09:28:12;3.70;1.00
2062;DHT22;11070;51.336;12.340;2023-02-25T09:30:38;3.80;99.90
2062;DHT22;11070;51.336;12.340;2023-02-25T09:33:04;3.80;1.00
2062;DHT22;11070;51.336;12.340;2023-02-25T09:35:30;3.70;99.90
2062;DHT22;11070;51.336;12.340;2023-02-25T09:37:57;3.80;1.00
2062;DHT22;11070;51.336;12.340;2023-02-25T09:40:23;4.00;1.00
2062;DHT22;11070;51.336;12.340;2023-02-25T09:42:59;4.10;99.90
2062;DHT22;11070;51.336;12.340;2023-02-25T09:45:30;4.30;86.00
2062;DHT22;11070;51.336;12.340;2023-02-25T09:48:23;4.30;1.00
2062;DHT22;11070;51.336;12.340;2023-02-25T09:50:49;4.40;57.30
2062;DHT22;11070;51.336;12.340;2023-02-25T09:53:44;4.50;99.90
2062;DHT22;11070;51.336;12.340;2023-02-25T09:56:14;4.60;99.90
2062;DHT22;11070;51.336;12.340;2023-02-25T09:58:42;4.60;1.00
2062;DHT22;11070;51.336;12.340;2023-02-25T10:04:02;4.70;1.00
2062;DHT22;11070;51.336;12.340;2023-02-25T10:06:41;4.50;99.90
2062;DHT22;11070;51.336;12.340;2023-02-25T10:13:00;4.10;1.00
2062;DHT22;11070;51.336;12.340;2023-02-25T10:15:21;4.00;99.90
2062;DHT22;11070;51.336;12.340;2023-02-25T10:26:20;3.90;1.00
2062;DHT22;11070;51.336;12.340;2023-02-25T10:28:51;3.90;99.90
2062;DHT22;11070;51.336;12.340;2023-02-25T10:31:20;3.90;1.00
2062;DHT22;11070;51.336;12.340;2023-02-25T10:33:48;3.80;99.90
2062;DHT22;11070;51.336;12.340;2023-02-25T10:36:26;3.80;99.90
2062;DHT22;11070;51.336;12.340;2023-02-25T10:38:54;3.90;99.90
2062;DHT22;11070;51.336;12.340;2023-02-25T10:41:22;3.80;99.90
2062;DHT22;11070;51.336;12.340;2023-02-25T10:43:50;3.80;99.90
2062;DHT22;11070;51.336;12.340;2023-02-25T10:48:58;3.80;99.90
2062;DHT22;11070;51.336;12.340;2023-02-25T10:51:24;3.90;99.90
2062;DHT22;11070;51.336;12.340;2023-02-25T10:56:21;4.00;99.90
2062;DHT22;11070;51.336;12.340;2023-02-25T10:59:06;4.10;99.90
2062;DHT22;11070;51.336;12.340;2023-02-25T11:01:38;4.10;1.00
2062;DHT22;11070;51.336;12.340;2023-02-25T11:04:10;4.10;1.00
2062;DHT22;11070;51.336;12.340;2023-02-25T11:06:39;4.20;99.90
2062;DHT22;11070;51.336;12.340;2023-02-25T11:11:57;4.30;99.90
2062;DHT22;11070;51.336;12.340;2023-02-25T11:14:28;4.50;63.80
2062;DHT22;11070;51.336;12.340;2023-02-25T11:17:16;4.30;1.00
2062;DHT22;11070;51.336;12.340;2023-02-25T11:19:47;4.00;99.90
2062;DHT22;11070;51.336;12.340;2023-02-25T11:22:22;3.90;99.90
2062;DHT22;11070;51.336;12.340;2023-02-25T11:24:57;3.90;99.90
2062;DHT22;11070;51.336;12.340;2023-02-25T11:27:34;3.90;99.90
2062;DHT22;11070;51.336;12.340;2023-02-25T11:32:49;3.90;1.00
2062;DHT22;11070;51.336;12.340;2023-02-25T11:35:29;4.10;1.00
2062;DHT22;11070;51.336;12.340;2023-02-25T11:37:56;4.10;99.90
2062;DHT22;11070;51.336;12.340;2023-02-25T11:40:27;4.20;99.90
2062;DHT22;11070;51.336;12.340;2023-02-25T11:45:33;4.10;1.00
2062;DHT22;11070;51.336;12.340;2023-02-25T11:48:02;4.30;99.90
2062;DHT22;11070;51.336;12.340;2023-02-25T11:51:06;4.50;1.00
2062;DHT22;11070;51.336;12.340;2023-02-25T11:56:35;4.60;99.90
2062;DHT22;11070;51.336;12.340;2023-02-25T12:23:40;4.60;1.00
2062;DHT22;11070;51.336;12.340;2023-02-25T12:29:06;4.50;99.90
2062;DHT22;11070;51.336;12.340;2023-02-25T12:32:20;4.50;1.00
2062;DHT22;11070;51.336;12.340;2023-02-25T12:38:26;4.80;99.90
2062;DHT22;11070;51.336;12.340;2023-02-25T12:40:36;4.90;99.90
2062;DHT22;11070;51.336;12.340;2023-02-25T12:43:15;4.80;99.90
2062;DHT22;11070;51.336;12.340;2023-02-25T12:48:37;4.60;1.00
2062;DHT22;11070;51.336;12.340;2023-02-25T12:57:20;3.90;99.90
2062;DHT22;11070;51.336;12.340;2023-02-25T13:08:15;4.40;1.00
2062;DHT22;11070;51.336;12.340;2023-02-25T13:11:00;4.50;1.00
2062;DHT22;11070;51.336;12.340;2023-02-25T13:18:47;4.30;1.00
2062;DHT22;11070;51.336;12.340;2023-02-25T13:26:54;4.10;1.00
2062;DHT22;11070;51.336;12.340;2023-02-25T13:55:41;3.50;1.00
2062;DHT22;11070;51.336;12.340;2023-02-25T13:58:33;3.10;1.00
2062;DHT22;11070;51.336;12.340;2023-02-25T14:09:33;2.60;1.00
2062;DHT22;11070;51.336;12.340;2023-02-25T14:22:52;3.40;1.00
2062;DHT22;11070;51.336;12.340;2023-02-25T14:28:21;4.00;99.90
2062;DHT22;11070;51.336;12.340;2023-02-25T14:36:42;4.20;3.90
2062;DHT22;11070;51.336;12.340;2023-02-25T14:42:27;4.10;99.90
2062;DHT22;11070;51.336;12.340;2023-02-25T14:48:01;4.10;99.90
2062;DHT22;11070;51.336;12.340;2023-02-25T14:53:26;4.60;47.30
2062;DHT22;11070;51.336;12.340;2023-02-25T15:03:49;4.50;1.00
2062;DHT22;11070;51.336;12.340;2023-02-25T15:12:23;4.00;40.30
2062;DHT22;11070;51.336;12.340;2023-02-25T15:20:42;3.70;1.00
2062;DHT22;11070;51.336;12.340;2023-02-25T15:25:43;3.40;99.90
2062;DHT22;11070;51.336;12.340;2023-02-25T15:33:43;2.50;1.00
2062;DHT22;11070;51.336;12.340;2023-02-25T15:38:47;2.20;1.00
2062;DHT22;11070;51.336;12.340;2023-02-25T15:41:39;2.10;1.00
2062;DHT22;11070;51.336;12.340;2023-02-25T15:54:09;2.50;99.90
2062;DHT22;11070;51.336;12.340;2023-02-25T15:56:49;2.40;99.90
2062;DHT22;11070;51.336;12.340;2023-02-25T16:05:50;2.10;1.00
2062;DHT22;11070;51.336;12.340;2023-02-25T16:08:17;2.20;1.00
2062;DHT22;11070;51.336;12.340;2023-02-25T16:10:49;2.20;99.90
2062;DHT22;11070;51.336;12.340;2023-02-25T16:13:26;2.20;99.90
2062;DHT22;11070;51.336;12.340;2023-02-25T16:15:55;2.10;99.90
2062;DHT22;11070;51.336;12.340;2023-02-25T16:18:40;2.10;1.00
2062;DHT22;11070;51.336;12.340;2023-02-25T16:21:45;2.10;1.00
2062;DHT22;11070;51.336;12.340;2023-02-25T16:24:12;2.00;99.90
2062;DHT22;11070;51.336;12.340;2023-02-25T16:34:58;2.10;1.00
2062;DHT22;11070;51.336;12.340;2023-02-25T16:40:29;2.00;1.00
2062;DHT22;11070;51.336;12.340;2023-02-25T16:42:58;2.00;1.00
2062;DHT22;11070;51.336;12.340;2023-02-25T16:48:49;2.10;1.00
2062;DHT22;11070;51.336;12.340;2023-02-25T16:51:45;2.00;99.90
2062;DHT22;11070;51.336;12.340;2023-02-25T16:54:16;2.00;99.90
2062;DHT22;11070;51.336;12.340;2023-02-25T16:56:46;2.00;99.90
2062;DHT22;11070;51.336;12.340;2023-02-25T17:01:38;2.10;99.90
2062;DHT22;11070;51.336;12.340;2023-02-25T17:04:22;2.10;1.00
2062;DHT22;11070;51.336;12.340;2023-02-25T17:07:12;2.10;99.90
2062;DHT22;11070;51.336;12.340;2023-02-25T17:09:50;2.00;1.00
2062;DHT22;11070;51.336;12.340;2023-02-25T17:14:52;1.50;1.00
2062;DHT22;11070;51.336;12.340;2023-02-25T17:17:29;1.40;1.00
2062;DHT22;11070;51.336;12.340;2023-02-25T17:19:58;1.30;1.00
2062;DHT22;11070;51.336;12.340;2023-02-25T17:22:25;1.20;1.00
2062;DHT22;11070;51.336;12.340;2023-02-25T17:24:52;1.20;13.50
2062;DHT22;11070;51.336;12.340;2023-02-25T17:27:19;1.20;9.40
2062;DHT22;11070;51.336;12.340;2023-02-25T17:29:48;1.20;28.90
2062;DHT22;11070;51.336;12.340;2023-02-25T17:32:21;1.30;26.90
2062;DHT22;11070;51.336;12.340;2023-02-25T17:34:50;1.40;28.90
2062;DHT22;11070;51.336;12.340;2023-02-25T17:37:17;1.50;1.00
2062;DHT22;11070;51.336;12.340;2023-02-25T17:39:44;1.40;1.00
2062;DHT22;11070;51.336;12.340;2023-02-25T17:42:31;1.40;1.00
2062;DHT22;11070;51.336;12.340;2023-02-25T17:44:58;1.30;1.00
2062;DHT22;11070;51.336;12.340;2023-02-25T17:47:27;1.30;1.00
2062;DHT22;11070;51.336;12.340;2023-02-25T17:49:54;1.40;1.00
2062;DHT22;11070;51.336;12.340;2023-02-25T17:52:30;1.40;1.00
2062;DHT22;11070;51.336;12.340;2023-02-25T17:54:59;1.40;1.00
2062;DHT22;11070;51.336;12.340;2023-02-25T17:57:28;1.40;1.00
2062;DHT22;11070;51.336;12.340;2023-02-25T17:59:59;1.40;1.00
2062;DHT22;11070;51.336;12.340;2023-02-25T18:02:33;1.40;1.00
2062;DHT22;11070;51.336;12.340;2023-02-25T18:07:42;1.50;1.00
2062;DHT22;11070;51.336;12.340;2023-02-25T18:12:59;1.50;1.00
2062;DHT22;11070;51.336;12.340;2023-02-25T18:15:31;1.50;1.00
2062;DHT22;11070;51.336;12.340;2023-02-25T18:18:05;1.50;1.00
2062;DHT22;11070;51.336;12.340;2023-02-25T18:20:35;1.50;1.00
2062;DHT22;11070;51.336;12.340;2023-02-25T18:23:20;1.50;1.00
2062;DHT22;11070;51.336;12.340;2023-02-25T18:28:37;1.60;1.00
2062;DHT22;11070;51.336;12.340;2023-02-25T18:31:03;1.60;99.90
2062;DHT22;11070;51.336;12.340;2023-02-25T18:33:30;1.60;99.90
2062;DHT22;11070;51.336;12.340;2023-02-25T18:35:55;1.60;99.90
2062;DHT22;11070;51.336;12.340;2023-02-25T18:38:24;1.60;99.90
2062;DHT22;11070;51.336;12.340;2023-02-25T18:40:51;1.60;99.90
2062;DHT22;11070;51.336;12.340;2023-02-25T18:43:19;1.60;99.90
2062;DHT22;11070;51.336;12.340;2023-02-25T18:45:46;1.60;79.50
2062;DHT22;11070;51.336;12.340;2023-02-25T18:48:12;1.60;99.90
2062;DHT22;11070;51.336;12.340;2023-02-25T18:50:38;1.60;82.60
2062;DHT22;11070;51.336;12.340;2023-02-25T18:53:17;1.60;99.90
2062;DHT22;11070;51.336;12.340;2023-02-25T18:55:44;1.60;1.00
2062;DHT22;11070;51.336;12.340;2023-02-25T18:58:15;1.60;1.00
2062;DHT22;11070;51.336;12.340;2023-02-25T19:00:43;1.60;99.90
2062;DHT22;11070;51.336;12.340;2023-02-25T19:03:14;1.60;1.00
2062;DHT22;11070;51.336;12.340;2023-02-25T19:05:41;1.50;99.90
2062;DHT22;11070;51.336;12.340;2023-02-25T19:08:14;1.40;1.00
2062;DHT22;11070;51.336;12.340;2023-02-25T19:10:41;1.40;1.00
2062;DHT22;11070;51.336;12.340;2023-02-25T19:13:28;1.30;1.00
2062;DHT22;11070;51.336;12.340;2023-02-25T19:15:54;1.30;1.00
2062;DHT22;11070;51.336;12.340;2023-02-25T19:18:20;1.20;1.00
2062;DHT22;11070;51.336;12.340;2023-02-25T19:20:46;1.20;59.30
2062;DHT22;11070;51.336;12.340;2023-02-25T19:23:14;1.10;1.00
2062;DHT22;11070;51.336;12.340;2023-02-25T19:25:41;1.00;99.90
2062;DHT22;11070;51.336;12.340;2023-02-25T19:28:08;0.90;1.00
2062;DHT22;11070;51.336;12.340;2023-02-25T19:30:38;0.90;1.00
2062;DHT22;11070;51.336;12.340;2023-02-25T19:33:05;0.90;1.00
2062;DHT22;11070;51.336;12.340;2023-02-25T19:35:33;0.90;99.90
2062;DHT22;11070;51.336;12.340;2023-02-25T19:37:59;0.90;99.90
2062;DHT22;11070;51.336;12.340;2023-02-25T19:40:25;0.90;1.00
2062;DHT22;11070;51.336;12.340;2023-02-25T19:42:51;0.90;55.70
2062;DHT22;11070;51.336;12.340;2023-02-25T19:45:19;0.80;24.70
2062;DHT22;11070;51.336;12.340;2023-02-25T19:47:46;0.90;58.00
2062;DHT22;11070;51.336;12.340;2023-02-25T19:50:13;0.80;91.10
2062;DHT22;11070;51.336;12.340;2023-02-25T19:52:40;0.80;99.90
2062;DHT22;11070;51.336;12.340;2023-02-25T19:55:06;0.80;1.00
2062;DHT22;11070;51.336;12.340;2023-02-25T19:57:33;0.70;99.90
2062;DHT22;11070;51.336;12.340;2023-02-25T19:59:59;0.70;99.90
2062;DHT22;11070;51.336;12.340;2023-02-25T20:02:25;0.70;99.90
2062;DHT22;11070;51.336;12.340;2023-02-25T20:04:50;0.60;99.90
2062;DHT22;11070;51.336;12.340;2023-02-25T20:07:16;0.50;1.00
2062;DHT22;11070;51.336;12.340;2023-02-25T20:09:42;0.50;1.00
2062;DHT22;11070;51.336;12.340;2023-02-25T20:12:08;0.40;1.00
2062;DHT22;11070;51.336;12.340;2023-02-25T20:14:34;0.30;99.90
2062;DHT22;11070;51.336;12.340;2023-02-25T20:17:00;0.30;99.90
2062;DHT22;11070;51.336;12.340;2023-02-25T20:19:27;0.30;1.00
2062;DHT22;11070;51.336;12.340;2023-02-25T20:21:55;0.20;99.90
2062;DHT22;11070;51.336;12.340;2023-02-25T20:24:21;0.20;1.00